createdAt,value
2023-02-06T00:00:50.963Z,81.01
2023-02-06T00:03:19.596Z,80.85
2023-02-06T00:05:56.939Z,80.90
2023-02-06T00:08:24.079Z,80.75
2023-02-06T00:13:17.393Z,80.71
2023-02-06T00:15:50.011Z,80.57
2023-02-06T00:18:27.157Z,80.61
2023-02-06T00:20:56.214Z,80.95
2023-02-06T00:23:24.502Z,81.06
2023-02-06T00:25:52.754Z,80.89
2023-02-06T00:28:21.127Z,81.36
2023-02-06T00:30:49.392Z,81.21
2023-02-06T00:33:19.004Z,81.25
2023-02-06T00:35:50.235Z,81.13
2023-02-06T00:38:18.724Z,80.99
2023-02-06T00:40:47.846Z,81.30
2023-02-06T00:43:16.365Z,81.17
2023-02-06T00:45:44.632Z,81.07
2023-02-06T00:48:16.825Z,81.00
2023-02-06T00:50:45.159Z,80.88
2023-02-06T00:53:13.396Z,80.77
2023-02-06T00:55:42.289Z,80.91
2023-02-06T00:58:10.712Z,80.82
2023-02-06T01:00:39.295Z,81.10
2023-02-06T01:03:07.406Z,81.01
2023-02-06T01:05:38.835Z,81.07
2023-02-06T01:08:08.028Z,80.72
2023-02-06T01:10:36.553Z,80.64
2023-02-06T01:13:04.942Z,79.94
2023-02-06T01:15:38.203Z,79.76
2023-02-06T01:18:06.415Z,79.96
2023-02-06T01:20:34.845Z,79.52
2023-02-06T01:23:05.752Z,79.64
2023-02-06T01:25:34.257Z,79.35
2023-02-06T01:28:03.831Z,79.35
2023-02-06T01:30:32.088Z,79.21
2023-02-06T01:33:00.660Z,79.27
2023-02-06T01:35:29.938Z,79.70
2023-02-06T01:37:58.181Z,79.75
2023-02-06T01:40:26.496Z,79.80
2023-02-06T01:42:55.257Z,79.85
2023-02-06T01:45:26.906Z,79.82
2023-02-06T01:48:03.776Z,79.91
2023-02-06T01:50:32.378Z,79.86
2023-02-06T01:53:00.735Z,79.75
2023-02-06T01:55:29.135Z,79.73
2023-02-06T01:58:00.694Z,79.90
2023-02-06T02:00:29.038Z,80.19
2023-02-06T02:02:57.581Z,80.01
2023-02-06T02:05:25.898Z,80.09
2023-02-06T02:08:01.561Z,80.04
2023-02-06T02:10:30.933Z,80.11
2023-02-06T02:13:00.709Z,80.10
2023-02-06T02:15:38.581Z,80.20
2023-02-06T02:18:24.972Z,80.08
2023-02-06T02:21:12.040Z,80.54
2023-02-06T02:24:12.877Z,80.82
2023-02-06T02:26:48.416Z,81.05
2023-02-06T02:29:25.704Z,81.12
2023-02-06T02:32:08.926Z,81.23
2023-02-06T02:34:47.712Z,81.38
2023-02-06T02:37:39.748Z,80.97
2023-02-06T02:40:43.096Z,80.73
2023-02-06T02:43:17.263Z,80.76
2023-02-06T02:45:57.702Z,80.84
2023-02-06T02:48:29.992Z,80.85
2023-02-06T02:50:58.353Z,80.83
2023-02-06T02:53:27.291Z,80.53
2023-02-06T02:55:55.785Z,80.78
2023-02-06T02:58:27.846Z,80.63
2023-02-06T03:01:08.597Z,80.48
2023-02-06T03:03:38.352Z,80.33
2023-02-06T03:06:19.678Z,80.46
2023-02-06T03:09:10.134Z,80.56
2023-02-06T03:11:44.823Z,80.63
2023-02-06T03:14:25.648Z,80.45
2023-02-06T03:16:59.860Z,80.42
2023-02-06T03:19:31.917Z,80.28
2023-02-06T03:22:01.416Z,80.14
2023-02-06T03:24:33.054Z,80.19
2023-02-06T03:27:22.469Z,80.70
2023-02-06T03:29:50.731Z,80.67
2023-02-06T03:32:24.264Z,80.45
2023-02-06T03:34:59.908Z,80.22
2023-02-06T03:37:28.499Z,79.89
2023-02-06T03:40:16.813Z,79.77
2023-02-06T03:42:48.981Z,79.41
2023-02-06T03:45:19.096Z,78.68
2023-02-06T03:47:47.516Z,78.42
2023-02-06T03:50:15.850Z,78.72
2023-02-06T03:52:46.837Z,78.75
2023-02-06T03:55:18.540Z,78.85
2023-02-06T03:57:50.644Z,78.91
2023-02-06T04:00:19.396Z,78.84
2023-02-06T04:02:48.085Z,78.66
2023-02-06T04:05:16.912Z,78.51
2023-02-06T04:07:52.873Z,78.37
2023-02-06T04:10:21.534Z,78.13
2023-02-06T04:12:50.374Z,77.84
2023-02-06T04:15:19.169Z,77.95
2023-02-06T04:17:59.435Z,78.11
2023-02-06T04:20:29.608Z,78.37
2023-02-06T04:22:59.548Z,78.35
2023-02-06T04:25:28.936Z,78.26
2023-02-06T04:27:57.431Z,78.36
2023-02-06T04:30:25.881Z,78.20
2023-02-06T04:32:54.952Z,78.15
2023-02-06T04:35:23.499Z,78.12
2023-02-06T04:37:51.756Z,78.07
2023-02-06T04:40:20.043Z,77.92
2023-02-06T04:42:48.312Z,77.52
2023-02-06T04:45:16.703Z,77.57
2023-02-06T04:47:49.517Z,77.66
2023-02-06T04:50:18.322Z,77.66
2023-02-06T04:52:47.202Z,77.96
2023-02-06T04:55:15.889Z,77.77
2023-02-06T04:57:44.398Z,77.77
2023-02-06T05:00:13.729Z,78.07
2023-02-06T05:02:41.906Z,78.03
2023-02-06T05:05:10.181Z,78.30
2023-02-06T05:07:38.555Z,78.22
2023-02-06T05:10:09.149Z,78.04
2023-02-06T05:12:38.386Z,77.84
2023-02-06T05:15:08.041Z,78.03
2023-02-06T05:17:36.628Z,77.90
2023-02-06T05:20:06.185Z,77.54
2023-02-06T05:22:34.582Z,77.52
2023-02-06T05:25:02.816Z,77.35
2023-02-06T05:27:31.771Z,77.06
2023-02-06T05:30:00.167Z,77.12
2023-02-06T05:32:28.427Z,77.38
2023-02-06T05:34:56.827Z,77.05
2023-02-06T05:37:24.930Z,76.60
2023-02-06T05:39:53.413Z,76.47
2023-02-06T05:42:21.563Z,76.37
2023-02-06T05:44:49.868Z,76.26
2023-02-06T05:47:18.042Z,76.33
2023-02-06T05:49:48.367Z,76.03
2023-02-06T05:52:19.313Z,75.99
2023-02-06T05:54:47.534Z,75.64
2023-02-06T05:57:15.692Z,75.85
2023-02-06T05:59:45.394Z,76.24
2023-02-06T06:02:13.666Z,75.69
2023-02-06T06:04:42.470Z,76.10
2023-02-06T06:07:10.762Z,75.86
2023-02-06T06:09:38.908Z,75.70
2023-02-06T06:12:07.175Z,75.10
2023-02-06T06:14:35.606Z,74.59
2023-02-06T06:17:04.255Z,74.38
2023-02-06T06:19:33.241Z,73.29
2023-02-06T06:22:01.628Z,72.25
2023-02-06T06:24:33.936Z,71.34
2023-02-06T06:27:04.006Z,70.07
2023-02-06T06:29:33.061Z,68.20
2023-02-06T06:32:01.292Z,66.31
2023-02-06T06:34:29.822Z,63.95
2023-02-06T06:36:58.751Z,62.64
2023-02-06T06:39:26.889Z,62.14
2023-02-06T06:41:57.822Z,61.59
2023-02-06T06:44:26.807Z,61.52
2023-02-06T06:46:55.235Z,62.12
2023-02-06T06:49:23.477Z,62.78
2023-02-06T06:51:53.111Z,63.11
2023-02-06T06:54:22.701Z,63.64
2023-02-06T06:56:50.972Z,63.92
2023-02-06T06:59:19.158Z,64.27
2023-02-06T07:01:51.903Z,64.77
2023-02-06T07:04:21.331Z,65.14
2023-02-06T07:06:52.038Z,65.57
2023-02-06T07:09:20.478Z,65.75
2023-02-06T07:11:48.745Z,65.72
2023-02-06T07:14:17.035Z,65.49
2023-02-06T07:16:45.329Z,65.62
2023-02-06T07:19:14.034Z,65.97
2023-02-06T07:21:42.839Z,66.54
2023-02-06T07:24:11.748Z,66.93
2023-02-06T07:26:41.784Z,67.31
2023-02-06T07:29:10.387Z,67.29
2023-02-06T07:31:38.819Z,67.34
2023-02-06T07:34:07.809Z,67.44
2023-02-06T07:36:36.783Z,67.43
2023-02-06T07:39:05.526Z,67.38
2023-02-06T07:41:33.854Z,67.72
2023-02-06T07:44:02.407Z,67.83
2023-02-06T07:46:30.784Z,67.71
2023-02-06T07:48:59.133Z,67.49
2023-02-06T07:51:27.510Z,67.67
2023-02-06T07:53:56.328Z,67.61
2023-02-06T07:56:25.477Z,67.53
2023-02-06T07:58:54.412Z,67.49
2023-02-06T08:01:22.950Z,67.44
2023-02-06T08:03:54.730Z,67.51
2023-02-06T08:06:24.431Z,67.27
2023-02-06T08:08:55.917Z,67.29
2023-02-06T08:11:31.081Z,67.04
2023-02-06T08:14:04.930Z,66.94
2023-02-06T08:16:34.404Z,67.18
2023-02-06T08:19:03.234Z,67.16
2023-02-06T08:21:31.686Z,67.22
2023-02-06T08:24:00.886Z,67.20
2023-02-06T08:26:29.632Z,67.05
2023-02-06T08:29:01.037Z,67.15
2023-02-06T08:31:35.031Z,66.93
2023-02-06T08:34:04.531Z,66.94
2023-02-06T08:36:33.240Z,66.90
2023-02-06T08:39:01.844Z,66.89
2023-02-06T08:41:32.819Z,67.13
2023-02-06T08:44:02.326Z,67.36
2023-02-06T08:46:32.281Z,67.66
2023-02-06T08:49:06.600Z,67.65
2023-02-06T08:51:35.472Z,67.54
2023-02-06T08:54:05.822Z,67.22
2023-02-06T08:56:36.747Z,67.29
2023-02-06T08:59:05.780Z,67.79
2023-02-06T09:01:38.107Z,67.75
2023-02-06T09:04:10.676Z,67.73
2023-02-06T09:06:43.806Z,67.70
2023-02-06T09:09:12.657Z,67.94
2023-02-06T09:11:42.218Z,67.66
2023-02-06T09:14:15.873Z,67.44
2023-02-06T09:16:44.649Z,67.77
2023-02-06T09:19:13.425Z,67.65
2023-02-06T09:21:41.838Z,67.54
2023-02-06T09:24:11.702Z,67.56
2023-02-06T09:26:58.030Z,67.57
2023-02-06T09:29:32.308Z,67.45
2023-02-06T09:32:00.991Z,66.90
2023-02-06T09:34:30.331Z,66.39
2023-02-06T09:36:58.761Z,65.71
2023-02-06T09:39:27.732Z,65.45
2023-02-06T09:42:00.050Z,65.29
2023-02-06T09:44:37.409Z,64.88
2023-02-06T09:47:07.788Z,63.36
2023-02-06T09:49:44.732Z,61.47
2023-02-06T09:52:20.453Z,60.17
2023-02-06T09:55:04.097Z,59.74
2023-02-06T09:57:51.503Z,59.15
2023-02-06T10:00:34.316Z,57.23
2023-02-06T10:03:23.931Z,56.83
2023-02-06T10:06:16.973Z,57.08
2023-02-06T10:08:51.380Z,57.91
2023-02-06T10:11:51.221Z,57.44
2023-02-06T10:14:41.854Z,57.40
2023-02-06T10:17:24.514Z,57.40
2023-02-06T10:19:56.590Z,57.69
2023-02-06T10:22:46.954Z,58.09
2023-02-06T10:25:30.562Z,58.64
2023-02-06T10:28:25.171Z,59.59
2023-02-06T10:31:12.541Z,60.31
2023-02-06T10:33:55.995Z,61.05
2023-02-06T10:36:52.900Z,61.54
2023-02-06T10:39:33.890Z,61.30
2023-02-06T10:42:30.695Z,61.24
2023-02-06T10:45:19.645Z,61.29
2023-02-06T10:48:05.749Z,62.07
2023-02-06T10:50:42.469Z,61.55
2023-02-06T10:53:34.058Z,61.26
2023-02-06T10:56:07.123Z,60.82
2023-02-06T10:58:41.174Z,60.00
2023-02-06T11:01:25.425Z,59.51
2023-02-06T11:04:15.933Z,59.05
2023-02-06T11:06:47.800Z,59.09
2023-02-06T11:09:16.469Z,58.81
2023-02-06T11:11:49.796Z,58.67
2023-02-06T11:14:25.410Z,58.30
2023-02-06T11:16:58.566Z,58.21
2023-02-06T11:19:54.155Z,58.58
2023-02-06T11:22:29.593Z,59.01
2023-02-06T11:25:20.838Z,59.24
2023-02-06T11:27:49.173Z,59.37
2023-02-06T11:30:37.818Z,59.53
2023-02-06T11:33:08.887Z,59.88
2023-02-06T11:35:38.040Z,60.51
2023-02-06T11:38:18.487Z,60.94
2023-02-06T11:41:02.792Z,60.95
2023-02-06T11:43:48.677Z,61.23
2023-02-06T11:46:24.891Z,61.38
2023-02-06T11:48:56.688Z,61.67
2023-02-06T11:51:25.070Z,61.65
2023-02-06T11:53:57.557Z,62.49
2023-02-06T11:56:25.977Z,62.93
2023-02-06T11:59:24.385Z,63.55
2023-02-06T12:01:55.698Z,63.92
2023-02-06T12:04:26.493Z,64.19
2023-02-06T12:07:04.489Z,64.41
2023-02-06T12:09:32.770Z,64.21
2023-02-06T12:12:35.163Z,64.35
2023-02-06T12:15:45.995Z,64.39
2023-02-06T12:18:23.002Z,64.29
2023-02-06T12:20:53.768Z,64.25
2023-02-06T12:23:33.038Z,64.36
2023-02-06T12:26:06.270Z,64.37
2023-02-06T12:31:19.599Z,64.73
2023-02-06T12:33:55.019Z,65.65
2023-02-06T12:36:27.176Z,66.42
2023-02-06T12:39:02.261Z,66.94
2023-02-06T12:41:45.871Z,67.27
2023-02-06T12:44:22.882Z,67.70
2023-02-06T12:47:24.891Z,68.09
2023-02-06T12:50:18.003Z,67.91
2023-02-06T12:52:55.376Z,67.49
2023-02-06T12:55:31.625Z,67.57
2023-02-06T12:58:02.906Z,67.50
2023-02-06T13:00:45.270Z,67.12
2023-02-06T13:03:50.472Z,66.29
2023-02-06T13:06:25.431Z,65.36
2023-02-06T13:08:59.265Z,65.51
2023-02-06T13:11:32.574Z,66.03
2023-02-06T13:14:26.509Z,66.36
2023-02-06T13:16:59.441Z,67.14
2023-02-06T13:19:28.873Z,67.36
2023-02-06T13:22:08.105Z,67.97
2023-02-06T13:24:43.351Z,68.21
2023-02-06T13:27:16.841Z,68.87
2023-02-06T13:29:53.935Z,69.50
2023-02-06T13:32:22.233Z,70.21
2023-02-06T13:34:50.047Z,70.95
2023-02-06T13:37:37.628Z,71.89
2023-02-06T13:40:23.102Z,72.67
2023-02-06T13:43:08.116Z,73.22
2023-02-06T13:45:47.727Z,73.38
2023-02-06T13:48:24.327Z,73.38
2023-02-06T13:51:05.348Z,73.19
2023-02-06T13:54:05.064Z,73.26
2023-02-06T13:56:38.415Z,73.39
2023-02-06T13:59:18.961Z,73.43
2023-02-06T14:01:46.244Z,72.87
2023-02-06T14:04:23.362Z,72.26
2023-02-06T14:07:29.125Z,71.82
2023-02-06T14:10:04.815Z,72.16
2023-02-06T14:12:44.589Z,72.74
2023-02-06T14:15:50.875Z,73.13
2023-02-06T14:18:31.236Z,73.69
2023-02-06T14:21:08.682Z,74.00
2023-02-06T14:23:54.261Z,74.18
2023-02-06T14:27:21.898Z,73.61
2023-02-06T14:29:53.742Z,72.53
2023-02-06T14:32:47.469Z,72.57
2023-02-06T14:35:56.258Z,72.68
2023-02-06T14:38:45.009Z,72.46
2023-02-06T14:41:12.341Z,72.31
2023-02-06T14:43:40.741Z,72.50
2023-02-06T14:46:15.603Z,72.29
2023-02-06T14:48:56.854Z,72.75
2023-02-06T14:51:24.461Z,73.03
2023-02-06T14:54:00.970Z,72.97
2023-02-06T14:56:32.728Z,73.22
2023-02-06T14:59:18.239Z,73.28
2023-02-06T15:01:47.262Z,73.34
2023-02-06T15:04:16.584Z,73.26
2023-02-06T15:06:54.746Z,73.31
2023-02-06T15:09:27.726Z,73.48
2023-02-06T15:11:57.172Z,73.49
2023-02-06T15:14:26.896Z,73.82
2023-02-06T15:16:56.647Z,74.00
2023-02-06T15:19:28.953Z,74.01
2023-02-06T15:22:03.072Z,74.17
2023-02-06T15:25:01.243Z,74.31
2023-02-06T15:27:30.155Z,74.75
2023-02-06T15:29:57.651Z,74.89
2023-02-06T15:32:31.903Z,74.88
2023-02-06T15:34:59.362Z,74.43
2023-02-06T15:37:27.397Z,74.14
2023-02-06T15:39:54.289Z,73.89
2023-02-06T15:42:21.719Z,73.62
2023-02-06T15:44:49.410Z,73.04
2023-02-06T15:47:17.370Z,72.55
2023-02-06T15:49:46.748Z,72.36
2023-02-06T15:52:14.799Z,72.25
2023-02-06T15:54:41.996Z,71.90
2023-02-06T15:57:35.001Z,72.10
2023-02-06T16:00:02.208Z,71.97
2023-02-06T16:02:39.312Z,71.70
2023-02-06T16:05:06.709Z,71.90
2023-02-06T16:07:35.501Z,71.92
2023-02-06T16:10:21.447Z,72.04
2023-02-06T16:12:48.488Z,72.05
2023-02-06T16:15:31.169Z,72.13
2023-02-06T16:18:04.830Z,72.22
2023-02-06T19:43:43.803Z,78.12
2023-02-06T19:46:17.287Z,77.81
2023-02-06T19:48:46.826Z,77.48
2023-02-06T19:51:25.153Z,77.25
2023-02-06T19:53:55.574Z,77.41
2023-02-06T19:56:35.582Z,77.25
2023-02-06T19:59:37.620Z,77.19
2023-02-06T20:02:28.308Z,76.68
2023-02-06T20:05:02.078Z,76.28
2023-02-06T20:07:35.255Z,76.40
2023-02-06T20:10:07.107Z,76.23
2023-02-06T20:12:45.776Z,76.30
2023-02-06T20:15:32.467Z,75.96
2023-02-06T20:18:03.127Z,75.87
2023-02-06T20:34:14.856Z,75.84
2023-02-06T20:37:10.144Z,75.35
2023-02-06T20:39:41.069Z,75.29
2023-02-06T20:42:23.558Z,75.11
2023-02-06T20:44:54.753Z,74.73
2023-02-06T20:47:23.823Z,74.72
2023-02-06T20:49:55.381Z,74.60
2023-02-06T20:52:24.202Z,74.89
2023-02-06T20:54:59.173Z,74.89
2023-02-06T20:57:36.176Z,74.64
2023-02-06T21:00:08.020Z,74.67
2023-02-06T21:02:39.885Z,74.27
2023-02-06T21:05:16.061Z,74.34
2023-02-06T21:07:45.575Z,74.57
2023-02-06T21:10:32.482Z,74.46
2023-02-06T21:15:56.631Z,74.42
2023-02-06T21:18:28.519Z,74.18
2023-02-06T21:20:57.631Z,73.93
2023-02-06T21:23:26.433Z,74.12
2023-02-06T21:25:57.962Z,73.88
2023-02-06T21:28:34.724Z,73.74
2023-02-06T21:31:25.395Z,73.83
2023-02-06T21:39:09.262Z,73.76
2023-02-06T21:41:45.704Z,73.39
2023-02-06T21:44:15.550Z,73.27
2023-02-06T21:46:44.818Z,73.16
2023-02-06T21:49:14.131Z,73.00
2023-02-06T21:51:47.043Z,73.22
2023-02-06T21:54:15.439Z,73.33
2023-02-06T21:56:50.940Z,72.93
2023-02-06T21:59:21.071Z,72.61
2023-02-06T22:01:52.644Z,72.47
2023-02-06T22:04:23.437Z,72.48
2023-02-06T22:06:55.973Z,71.85
2023-02-06T22:09:26.023Z,71.78
2023-02-06T22:11:56.103Z,71.65
2023-02-06T22:14:25.282Z,71.39
2023-02-06T22:16:53.983Z,71.05
2023-02-06T22:19:24.054Z,71.07
2023-02-06T22:22:00.091Z,70.83
2023-02-06T22:24:30.214Z,70.84
2023-02-06T22:27:03.906Z,70.87
2023-02-06T22:29:32.871Z,70.79
2023-02-06T22:32:07.745Z,70.87
2023-02-06T22:34:36.683Z,70.60
2023-02-06T22:37:09.281Z,70.14
2023-02-06T22:39:39.779Z,69.80
2023-02-06T22:42:09.763Z,70.13
2023-02-06T22:44:39.169Z,70.07
2023-02-06T22:47:10.165Z,70.26
2023-02-06T22:49:39.227Z,70.30
2023-02-06T22:52:28.309Z,70.21
2023-02-06T22:54:57.250Z,70.41
2023-02-06T22:57:27.896Z,70.57
2023-02-06T22:59:57.154Z,70.82
2023-02-06T23:02:25.462Z,71.04
2023-02-06T23:04:58.449Z,70.82
2023-02-06T23:07:48.169Z,70.69
2023-02-06T23:10:17.449Z,70.70
2023-02-06T23:12:47.050Z,70.39
2023-02-06T23:15:17.568Z,70.31
